sensor_id;sensor_type;location;lat;lon;timestamp;temperature;humidity
1075;DHT22;526;51.392;12.448;2023-04-15T00:01:50;7.10;97.30
1075;DHT22;526;51.392;12.448;2023-04-15T00:04:16;7.10;97.30
1075;DHT22;526;51.392;12.448;2023-04-15T00:06:42;7.00;97.30
1075;DHT22;526;51.392;12.448;2023-04-15T00:09:07;7.00;97.30
1075;DHT22;526;51.392;12.448;2023-04-15T00:11:33;7.00;97.30
1075;DHT22;526;51.392;12.448;2023-04-15T00:13:58;7.00;97.30
1075;DHT22;526;51.392;12.448;2023-04-15T00:16:24;7.00;97.30
1075;DHT22;526;51.392;12.448;2023-04-15T00:18:52;7.00;97.30
1075;DHT22;526;51.392;12.448;2023-04-15T00:21:18;6.90;97.30
1075;DHT22;526;51.392;12.448;2023-04-15T00:23:43;6.90;97.30
1075;DHT22;526;51.392;12.448;2023-04-15T00:26:09;6.90;97.30
1075;DHT22;526;51.392;12.448;2023-04-15T00:28:34;6.90;97.30
1075;DHT22;526;51.392;12.448;2023-04-15T00:31:00;6.90;97.30
1075;DHT22;526;51.392;12.448;2023-04-15T00:33:25;6.90;97.30
1075;DHT22;526;51.392;12.448;2023-04-15T00:35:51;6.90;97.30
1075;DHT22;526;51.392;12.448;2023-04-15T00:38:17;6.90;97.30
1075;DHT22;526;51.392;12.448;2023-04-15T00:40:43;6.90;97.30
1075;DHT22;526;51.392;12.448;2023-04-15T00:43:09;6.90;97.30
1075;DHT22;526;51.392;12.448;2023-04-15T00:45:35;6.90;97.30
1075;DHT22;526;51.392;12.448;2023-04-15T00:48:00;6.90;97.30
1075;DHT22;526;51.392;12.448;2023-04-15T00:50:26;6.80;97.30
1075;DHT22;526;51.392;12.448;2023-04-15T00:52:52;6.90;97.30
1075;DHT22;526;51.392;12.448;2023-04-15T00:55:17;6.80;97.30
1075;DHT22;526;51.392;12.448;2023-04-15T00:57:43;6.80;97.30
1075;DHT22;526;51.392;12.448;2023-04-15T01:00:09;6.80;97.30
1075;DHT22;526;51.392;12.448;2023-04-15T01:02:39;6.80;97.30
1075;DHT22;526;51.392;12.448;2023-04-15T01:05:12;6.80;97.30
1075;DHT22;526;51.392;12.448;2023-04-15T01:07:48;6.80;97.30
1075;DHT22;526;51.392;12.448;2023-04-15T01:10:13;6.80;97.30
1075;DHT22;526;51.392;12.448;2023-04-15T01:12:39;6.80;97.30
1075;DHT22;526;51.392;12.448;2023-04-15T01:15:07;6.80;97.30
1075;DHT22;526;51.392;12.448;2023-04-15T01:17:38;6.80;97.30
1075;DHT22;526;51.392;12.448;2023-04-15T01:20:09;6.80;97.30
1075;DHT22;526;51.392;12.448;2023-04-15T01:22:39;6.80;97.30
1075;DHT22;526;51.392;12.448;2023-04-15T01:25:09;6.80;97.30
1075;DHT22;526;51.392;12.448;2023-04-15T01:27:38;6.80;97.30
1075;DHT22;526;51.392;12.448;2023-04-15T01:30:10;6.80;97.30
1075;DHT22;526;51.392;12.448;2023-04-15T01:32:38;6.80;97.30
1075;DHT22;526;51.392;12.448;2023-04-15T01:35:04;6.80;97.30
1075;DHT22;526;51.392;12.448;2023-04-15T01:37:30;6.80;97.30
1075;DHT22;526;51.392;12.448;2023-04-15T01:39:56;6.80;97.30
1075;DHT22;526;51.392;12.448;2023-04-15T01:42:24;6.80;97.30
1075;DHT22;526;51.392;12.448;2023-04-15T01:45:00;6.70;97.30
1075;DHT22;526;51.392;12.448;2023-04-15T01:47:33;6.70;97.30
1075;DHT22;526;51.392;12.448;2023-04-15T01:49:59;6.70;97.30
1075;DHT22;526;51.392;12.448;2023-04-15T01:52:31;6.70;97.30
1075;DHT22;526;51.392;12.448;2023-04-15T01:54:59;6.70;97.30
1075;DHT22;526;51.392;12.448;2023-04-15T01:57:28;6.70;97.30
1075;DHT22;526;51.392;12.448;2023-04-15T01:59:53;6.70;97.30
1075;DHT22;526;51.392;12.448;2023-04-15T02:02:19;6.70;97.30
1075;DHT22;526;51.392;12.448;2023-04-15T02:04:50;6.70;97.30
1075;DHT22;526;51.392;12.448;2023-04-15T02:07:15;6.70;97.30
1075;DHT22;526;51.392;12.448;2023-04-15T02:09:41;6.70;97.30
1075;DHT22;526;51.392;12.448;2023-04-15T02:12:08;6.70;97.30
1075;DHT22;526;51.392;12.448;2023-04-15T02:14:34;6.70;97.30
1075;DHT22;526;51.392;12.448;2023-04-15T02:17:01;6.70;97.30
1075;DHT22;526;51.392;12.448;2023-04-15T02:19:32;6.70;97.30
1075;DHT22;526;51.392;12.448;2023-04-15T02:22:01;6.80;97.30
1075;DHT22;526;51.392;12.448;2023-04-15T02:24:29;6.70;97.30
1075;DHT22;526;51.392;12.448;2023-04-15T02:26:56;6.70;97.30
1075;DHT22;526;51.392;12.448;2023-04-15T02:29:22;6.70;97.30
1075;DHT22;526;51.392;12.448;2023-04-15T02:31:48;6.70;97.30
1075;DHT22;526;51.392;12.448;2023-04-15T02:34:21;6.70;97.30
1075;DHT22;526;51.392;12.448;2023-04-15T02:36:49;6.70;97.30
1075;DHT22;526;51.392;12.448;2023-04-15T02:39:19;6.70;97.30
1075;DHT22;526;51.392;12.448;2023-04-15T02:41:44;6.70;97.30
1075;DHT22;526;51.392;12.448;2023-04-15T02:44:19;6.70;97.30
1075;DHT22;526;51.392;12.448;2023-04-15T02:46:45;6.60;97.30
1075;DHT22;526;51.392;12.448;2023-04-15T02:49:17;6.60;97.30
1075;DHT22;526;51.392;12.448;2023-04-15T02:51:42;6.60;97.30
1075;DHT22;526;51.392;12.448;2023-04-15T02:54:19;6.60;97.30
1075;DHT22;526;51.392;12.448;2023-04-15T02:56:45;6.60;97.30
1075;DHT22;526;51.392;12.448;2023-04-15T02:59:11;6.60;97.30
1075;DHT22;526;51.392;12.448;2023-04-15T03:01:39;6.60;97.30
1075;DHT22;526;51.392;12.448;2023-04-15T03:04:08;6.70;97.30
1075;DHT22;526;51.392;12.448;2023-04-15T03:06:34;6.60;97.30
1075;DHT22;526;51.392;12.448;2023-04-15T03:08:59;6.60;97.30
1075;DHT22;526;51.392;12.448;2023-04-15T03:11:27;6.60;97.30
1075;DHT22;526;51.392;12.448;2023-04-15T03:13:52;6.60;97.30
1075;DHT22;526;51.392;12.448;2023-04-15T03:16:18;6.60;97.30
1075;DHT22;526;51.392;12.448;2023-04-15T03:18:43;6.70;97.30
1075;DHT22;526;51.392;12.448;2023-04-15T03:21:09;6.70;97.30
1075;DHT22;526;51.392;12.448;2023-04-15T03:23:35;6.70;97.30
1075;DHT22;526;51.392;12.448;2023-04-15T03:26:04;6.70;97.30
1075;DHT22;526;51.392;12.448;2023-04-15T03:28:30;6.70;97.30
1075;DHT22;526;51.392;12.448;2023-04-15T03:30:55;6.70;97.30
1075;DHT22;526;51.392;12.448;2023-04-15T03:33:21;6.70;97.30
1075;DHT22;526;51.392;12.448;2023-04-15T03:35:47;6.70;97.30
1075;DHT22;526;51.392;12.448;2023-04-15T03:38:18;6.70;97.30
1075;DHT22;526;51.392;12.448;2023-04-15T03:40:45;6.70;97.30
1075;DHT22;526;51.392;12.448;2023-04-15T03:43:20;6.70;97.30
1075;DHT22;526;51.392;12.448;2023-04-15T03:45:46;6.70;97.30
1075;DHT22;526;51.392;12.448;2023-04-15T03:48:16;6.70;97.30
1075;DHT22;526;51.392;12.448;2023-04-15T03:50:45;6.70;97.30
1075;DHT22;526;51.392;12.448;2023-04-15T03:53:13;6.70;97.30
1075;DHT22;526;51.392;12.448;2023-04-15T03:55:39;6.70;97.30
1075;DHT22;526;51.392;12.448;2023-04-15T03:58:04;6.70;97.30
1075;DHT22;526;51.392;12.448;2023-04-15T04:00:30;6.70;97.30
1075;DHT22;526;51.392;12.448;2023-04-15T04:02:55;6.70;97.30
1075;DHT22;526;51.392;12.448;2023-04-15T04:05:21;6.70;97.30
1075;DHT22;526;51.392;12.448;2023-04-15T04:07:46;6.70;97.30
1075;DHT22;526;51.392;12.448;2023-04-15T04:10:12;6.70;97.30
1075;DHT22;526;51.392;12.448;2023-04-15T04:12:40;6.70;97.30
1075;DHT22;526;51.392;12.448;2023-04-15T04:15:06;6.70;97.30
1075;DHT22;526;51.392;12.448;2023-04-15T04:17:34;6.80;97.30
1075;DHT22;526;51.392;12.448;2023-04-15T04:20:11;6.80;97.30
1075;DHT22;526;51.392;12.448;2023-04-15T04:22:40;6.80;97.30
1075;DHT22;526;51.392;12.448;2023-04-15T04:25:09;6.80;97.30
1075;DHT22;526;51.392;12.448;2023-04-15T04:27:35;6.80;97.30
1075;DHT22;526;51.392;12.448;2023-04-15T04:30:04;6.80;97.30
1075;DHT22;526;51.392;12.448;2023-04-15T04:32:32;6.80;97.30
1075;DHT22;526;51.392;12.448;2023-04-15T04:35:01;6.80;97.30
1075;DHT22;526;51.392;12.448;2023-04-15T04:37:43;6.80;97.30
1075;DHT22;526;51.392;12.448;2023-04-15T04:40:09;6.80;97.30
1075;DHT22;526;51.392;12.448;2023-04-15T04:42:38;6.80;97.30
1075;DHT22;526;51.392;12.448;2023-04-15T04:45:09;6.80;97.30
1075;DHT22;526;51.392;12.448;2023-04-15T04:47:40;6.80;97.30
1075;DHT22;526;51.392;12.448;2023-04-15T04:50:09;6.80;97.30
1075;DHT22;526;51.392;12.448;2023-04-15T04:52:40;6.80;97.30
1075;DHT22;526;51.392;12.448;2023-04-15T04:55:06;6.80;97.30
1075;DHT22;526;51.392;12.448;2023-04-15T04:57:41;6.80;97.30
1075;DHT22;526;51.392;12.448;2023-04-15T05:00:07;6.80;97.30
1075;DHT22;526;51.392;12.448;2023-04-15T05:02:38;6.80;97.30
1075;DHT22;526;51.392;12.448;2023-04-15T05:05:06;6.80;97.30
1075;DHT22;526;51.392;12.448;2023-04-15T05:07:38;6.80;97.30
1075;DHT22;526;51.392;12.448;2023-04-15T05:10:04;6.80;97.30
1075;DHT22;526;51.392;12.448;2023-04-15T05:12:32;6.80;97.30
1075;DHT22;526;51.392;12.448;2023-04-15T05:15:09;6.90;97.30
1075;DHT22;526;51.392;12.448;2023-04-15T05:17:37;6.90;97.30
1075;DHT22;526;51.392;12.448;2023-04-15T05:20:03;6.90;97.30
1075;DHT22;526;51.392;12.448;2023-04-15T05:22:31;6.90;97.30
1075;DHT22;526;51.392;12.448;2023-04-15T05:24:57;6.90;97.30
1075;DHT22;526;51.392;12.448;2023-04-15T05:27:22;6.90;97.30
1075;DHT22;526;51.392;12.448;2023-04-15T05:29:51;6.90;97.30
1075;DHT22;526;51.392;12.448;2023-04-15T05:32:24;6.90;97.30
1075;DHT22;526;51.392;12.448;2023-04-15T05:34:53;6.90;97.30
1075;DHT22;526;51.392;12.448;2023-04-15T05:37:30;6.90;97.30
1075;DHT22;526;51.392;12.448;2023-04-15T05:40:02;6.90;97.30
1075;DHT22;526;51.392;12.448;2023-04-15T05:42:33;6.90;97.30
1075;DHT22;526;51.392;12.448;2023-04-15T05:44:59;6.90;97.30
1075;DHT22;526;51.392;12.448;2023-04-15T05:47:32;6.90;97.30
1075;DHT22;526;51.392;12.448;2023-04-15T05:50:01;7.00;97.30
1075;DHT22;526;51.392;12.448;2023-04-15T05:52:26;7.00;97.30
1075;DHT22;526;51.392;12.448;2023-04-15T05:54:52;7.00;97.30
1075;DHT22;526;51.392;12.448;2023-04-15T05:57:17;7.00;97.30
1075;DHT22;526;51.392;12.448;2023-04-15T05:59:43;7.00;97.30
1075;DHT22;526;51.392;12.448;2023-04-15T06:02:09;7.00;97.30
1075;DHT22;526;51.392;12.448;2023-04-15T06:04:34;7.00;97.30
1075;DHT22;526;51.392;12.448;2023-04-15T06:07:01;7.00;97.30
1075;DHT22;526;51.392;12.448;2023-04-15T06:09:26;7.00;97.30
1075;DHT22;526;51.392;12.448;2023-04-15T06:11:53;7.00;97.30
1075;DHT22;526;51.392;12.448;2023-04-15T06:14:19;7.10;97.30
1075;DHT22;526;51.392;12.448;2023-04-15T06:16:44;7.10;97.30
1075;DHT22;526;51.392;12.448;2023-04-15T06:19:10;7.10;97.30
1075;DHT22;526;51.392;12.448;2023-04-15T06:21:36;7.10;97.30
1075;DHT22;526;51.392;12.448;2023-04-15T06:24:02;7.10;97.30
1075;DHT22;526;51.392;12.448;2023-04-15T06:26:28;7.10;97.30
1075;DHT22;526;51.392;12.448;2023-04-15T06:28:53;7.10;97.30
1075;DHT22;526;51.392;12.448;2023-04-15T06:31:20;7.10;97.30
1075;DHT22;526;51.392;12.448;2023-04-15T06:33:45;7.10;97.30
1075;DHT22;526;51.392;12.448;2023-04-15T06:36:11;7.10;97.30
1075;DHT22;526;51.392;12.448;2023-04-15T06:38:36;7.10;97.30
1075;DHT22;526;51.392;12.448;2023-04-15T06:41:02;7.20;97.30
1075;DHT22;526;51.392;12.448;2023-04-15T06:43:28;7.20;97.30
1075;DHT22;526;51.392;12.448;2023-04-15T06:45:54;7.20;97.30
1075;DHT22;526;51.392;12.448;2023-04-15T06:48:19;7.20;97.30
1075;DHT22;526;51.392;12.448;2023-04-15T06:50:44;7.20;97.30
1075;DHT22;526;51.392;12.448;2023-04-15T06:53:10;7.20;97.30
1075;DHT22;526;51.392;12.448;2023-04-15T06:55:36;7.20;97.30
1075;DHT22;526;51.392;12.448;2023-04-15T06:58:01;7.30;97.30
1075;DHT22;526;51.392;12.448;2023-04-15T07:00:27;7.30;97.30
1075;DHT22;526;51.392;12.448;2023-04-15T07:02:53;7.30;97.30
1075;DHT22;526;51.392;12.448;2023-04-15T07:05:19;7.30;97.30
1075;DHT22;526;51.392;12.448;2023-04-15T07:07:45;7.30;97.30
1075;DHT22;526;51.392;12.448;2023-04-15T07:10:11;7.30;97.30
1075;DHT22;526;51.392;12.448;2023-04-15T07:12:39;7.30;97.30
1075;DHT22;526;51.392;12.448;2023-04-15T07:15:09;7.40;97.30
1075;DHT22;526;51.392;12.448;2023-04-15T07:17:51;7.40;97.30
1075;DHT22;526;51.392;12.448;2023-04-15T07:20:19;7.40;97.30
1075;DHT22;526;51.392;12.448;2023-04-15T07:22:45;7.40;97.30
1075;DHT22;526;51.392;12.448;2023-04-15T07:25:22;7.50;97.30
1075;DHT22;526;51.392;12.448;2023-04-15T07:27:51;7.50;97.30
1075;DHT22;526;51.392;12.448;2023-04-15T07:30:19;7.50;97.30
1075;DHT22;526;51.392;12.448;2023-04-15T07:32:52;7.50;97.30
1075;DHT22;526;51.392;12.448;2023-04-15T07:35:21;7.50;97.30
1075;DHT22;526;51.392;12.448;2023-04-15T07:37:50;7.50;97.30
1075;DHT22;526;51.392;12.448;2023-04-15T07:40:18;7.60;97.30
1075;DHT22;526;51.392;12.448;2023-04-15T07:42:45;7.60;97.30
1075;DHT22;526;51.392;12.448;2023-04-15T07:45:16;7.60;97.30
1075;DHT22;526;51.392;12.448;2023-04-15T07:47:44;7.70;97.30
1075;DHT22;526;51.392;12.448;2023-04-15T07:50:22;7.70;97.30
1075;DHT22;526;51.392;12.448;2023-04-15T07:52:48;7.70;97.30
1075;DHT22;526;51.392;12.448;2023-04-15T07:55:14;7.70;97.30
1075;DHT22;526;51.392;12.448;2023-04-15T07:57:52;7.70;97.30
1075;DHT22;526;51.392;12.448;2023-04-15T08:00:20;7.80;97.30
1075;DHT22;526;51.392;12.448;2023-04-15T08:02:46;7.80;97.30
1075;DHT22;526;51.392;12.448;2023-04-15T08:05:19;7.80;97.30
1075;DHT22;526;51.392;12.448;2023-04-15T08:07:45;7.80;97.30
1075;DHT22;526;51.392;12.448;2023-04-15T08:10:21;7.80;97.30
1075;DHT22;526;51.392;12.448;2023-04-15T08:12:49;7.90;97.30
1075;DHT22;526;51.392;12.448;2023-04-15T08:15:21;7.90;97.30
1075;DHT22;526;51.392;12.448;2023-04-15T08:17:49;7.90;97.30
1075;DHT22;526;51.392;12.448;2023-04-15T08:20:15;7.90;97.30
1075;DHT22;526;51.392;12.448;2023-04-15T08:22:44;8.00;97.30
1075;DHT22;526;51.392;12.448;2023-04-15T08:25:12;8.00;97.30
1075;DHT22;526;51.392;12.448;2023-04-15T08:27:37;8.00;97.30
1075;DHT22;526;51.392;12.448;2023-04-15T08:30:08;8.00;97.30
1075;DHT22;526;51.392;12.448;2023-04-15T08:32:34;8.00;97.30
1075;DHT22;526;51.392;12.448;2023-04-15T08:34:59;8.00;97.30
1075;DHT22;526;51.392;12.448;2023-04-15T08:37:28;8.10;97.30
1075;DHT22;526;51.392;12.448;2023-04-15T08:39:53;8.10;97.30
1075;DHT22;526;51.392;12.448;2023-04-15T08:42:26;8.10;97.30
1075;DHT22;526;51.392;12.448;2023-04-15T08:44:54;8.20;97.30
1075;DHT22;526;51.392;12.448;2023-04-15T08:47:21;8.20;97.30
1075;DHT22;526;51.392;12.448;2023-04-15T08:49:50;8.20;97.30
1075;DHT22;526;51.392;12.448;2023-04-15T08:52:18;8.20;97.30
1075;DHT22;526;51.392;12.448;2023-04-15T08:54:44;8.20;97.30
1075;DHT22;526;51.392;12.448;2023-04-15T08:57:12;8.30;97.30
1075;DHT22;526;51.392;12.448;2023-04-15T08:59:39;8.30;97.30
1075;DHT22;526;51.392;12.448;2023-04-15T09:02:05;8.30;97.30
1075;DHT22;526;51.392;12.448;2023-04-15T09:04:32;8.30;97.30
1075;DHT22;526;51.392;12.448;2023-04-15T09:06:57;8.30;97.30
1075;DHT22;526;51.392;12.448;2023-04-15T09:09:30;8.40;97.30
1075;DHT22;526;51.392;12.448;2023-04-15T09:11:56;8.40;97.30
1075;DHT22;526;51.392;12.448;2023-04-15T09:14:23;8.50;97.30
1075;DHT22;526;51.392;12.448;2023-04-15T09:16:59;8.60;97.30
1075;DHT22;526;51.392;12.448;2023-04-15T09:19:25;8.60;97.30
1075;DHT22;526;51.392;12.448;2023-04-15T09:21:52;8.70;97.30
1075;DHT22;526;51.392;12.448;2023-04-15T09:24:21;8.70;97.30
1075;DHT22;526;51.392;12.448;2023-04-15T09:26:46;8.70;97.30
1075;DHT22;526;51.392;12.448;2023-04-15T09:29:12;8.70;97.30
1075;DHT22;526;51.392;12.448;2023-04-15T09:31:40;8.80;97.30
1075;DHT22;526;51.392;12.448;2023-04-15T09:34:10;8.80;97.30
1075;DHT22;526;51.392;12.448;2023-04-15T09:39:11;8.90;97.30
1075;DHT22;526;51.392;12.448;2023-04-15T09:41:39;8.90;97.30
1075;DHT22;526;51.392;12.448;2023-04-15T09:44:51;8.90;97.30
1075;DHT22;526;51.392;12.448;2023-04-15T09:47:00;8.90;97.30
1075;DHT22;526;51.392;12.448;2023-04-15T09:49:29;9.00;97.30
1075;DHT22;526;51.392;12.448;2023-04-15T09:52:00;9.00;97.30
1075;DHT22;526;51.392;12.448;2023-04-15T09:54:34;9.10;97.30
1075;DHT22;526;51.392;12.448;2023-04-15T09:57:04;9.10;97.30
1075;DHT22;526;51.392;12.448;2023-04-15T09:59:30;9.10;97.30
1075;DHT22;526;51.392;12.448;2023-04-15T10:01:58;9.20;97.30
1075;DHT22;526;51.392;12.448;2023-04-15T10:04:26;9.20;97.30
1075;DHT22;526;51.392;12.448;2023-04-15T10:06:54;9.20;97.30
1075;DHT22;526;51.392;12.448;2023-04-15T10:09:20;9.20;97.30
1075;DHT22;526;51.392;12.448;2023-04-15T10:11:47;9.30;97.30
1075;DHT22;526;51.392;12.448;2023-04-15T10:14:14;9.40;97.30
1075;DHT22;526;51.392;12.448;2023-04-15T10:16:40;9.40;97.30
1075;DHT22;526;51.392;12.448;2023-04-15T10:19:08;9.50;97.30
1075;DHT22;526;51.392;12.448;2023-04-15T10:21:36;9.50;97.30
1075;DHT22;526;51.392;12.448;2023-04-15T10:24:02;9.50;97.30
1075;DHT22;526;51.392;12.448;2023-04-15T10:26:29;9.50;97.30
1075;DHT22;526;51.392;12.448;2023-04-15T10:28:55;9.50;97.30
1075;DHT22;526;51.392;12.448;2023-04-15T10:31:21;9.50;97.30
1075;DHT22;526;51.392;12.448;2023-04-15T10:33:48;9.50;97.30
1075;DHT22;526;51.392;12.448;2023-04-15T10:36:14;9.50;97.30
1075;DHT22;526;51.392;12.448;2023-04-15T10:38:44;9.50;97.30
1075;DHT22;526;51.392;12.448;2023-04-15T10:41:26;9.60;97.30
1075;DHT22;526;51.392;12.448;2023-04-15T10:44:02;9.60;97.30
1075;DHT22;526;51.392;12.448;2023-04-15T10:46:42;9.60;97.30
1075;DHT22;526;51.392;12.448;2023-04-15T10:49:23;9.60;97.30
1075;DHT22;526;51.392;12.448;2023-04-15T10:51:57;9.70;97.30
1075;DHT22;526;51.392;12.448;2023-04-15T10:59:32;9.70;97.30
1075;DHT22;526;51.392;12.448;2023-04-15T11:02:04;9.70;97.30
1075;DHT22;526;51.392;12.448;2023-04-15T11:04:58;9.80;97.30
1075;DHT22;526;51.392;12.448;2023-04-15T11:07:48;9.80;97.30
1075;DHT22;526;51.392;12.448;2023-04-15T11:12:46;9.90;97.30
1075;DHT22;526;51.392;12.448;2023-04-15T11:15:27;9.90;97.30
1075;DHT22;526;51.392;12.448;2023-04-15T11:17:57;9.90;97.30
1075;DHT22;526;51.392;12.448;2023-04-15T11:20:23;10.00;97.30
1075;DHT22;526;51.392;12.448;2023-04-15T11:22:50;10.00;97.30
1075;DHT22;526;51.392;12.448;2023-04-15T11:25:27;9.90;97.30
1075;DHT22;526;51.392;12.448;2023-04-15T11:27:54;9.90;97.30
1075;DHT22;526;51.392;12.448;2023-04-15T11:30:27;9.90;97.30
1075;DHT22;526;51.392;12.448;2023-04-15T11:32:56;9.90;97.30
1075;DHT22;526;51.392;12.448;2023-04-15T11:35:22;9.90;97.30
1075;DHT22;526;51.392;12.448;2023-04-15T11:37:49;9.90;97.30
1075;DHT22;526;51.392;12.448;2023-04-15T11:40:15;9.90;97.30
1075;DHT22;526;51.392;12.448;2023-04-15T11:42:43;9.90;97.30
1075;DHT22;526;51.392;12.448;2023-04-15T11:45:10;9.90;97.30
1075;DHT22;526;51.392;12.448;2023-04-15T11:47:36;9.90;97.30
1075;DHT22;526;51.392;12.448;2023-04-15T11:50:19;9.90;97.30
1075;DHT22;526;51.392;12.448;2023-04-15T11:53:00;10.00;97.30
1075;DHT22;526;51.392;12.448;2023-04-15T11:55:26;10.00;97.30
1075;DHT22;526;51.392;12.448;2023-04-15T11:58:15;10.00;97.30
1075;DHT22;526;51.392;12.448;2023-04-15T12:00:45;10.00;97.30
1075;DHT22;526;51.392;12.448;2023-04-15T12:06:10;10.00;97.30
1075;DHT22;526;51.392;12.448;2023-04-15T12:09:02;10.00;97.30
1075;DHT22;526;51.392;12.448;2023-04-15T12:11:30;10.00;97.30
1075;DHT22;526;51.392;12.448;2023-04-15T12:13:57;10.00;97.30
1075;DHT22;526;51.392;12.448;2023-04-15T12:16:23;10.00;97.30
1075;DHT22;526;51.392;12.448;2023-04-15T12:18:54;10.00;97.30
1075;DHT22;526;51.392;12.448;2023-04-15T12:21:24;10.00;97.30
1075;DHT22;526;51.392;12.448;2023-04-15T12:23:54;10.00;97.30
1075;DHT22;526;51.392;12.448;2023-04-15T12:26:44;10.00;97.30
1075;DHT22;526;51.392;12.448;2023-04-15T12:29:12;10.10;97.30
1075;DHT22;526;51.392;12.448;2023-04-15T12:32:16;10.10;97.30
1075;DHT22;526;51.392;12.448;2023-04-15T12:34:52;10.20;97.30
1075;DHT22;526;51.392;12.448;2023-04-15T12:37:18;10.20;97.30
1075;DHT22;526;51.392;12.448;2023-04-15T12:39:47;10.30;97.30
1075;DHT22;526;51.392;12.448;2023-04-15T12:42:14;10.30;97.30
1075;DHT22;526;51.392;12.448;2023-04-15T12:44:40;10.40;97.30
1075;DHT22;526;51.392;12.448;2023-04-15T12:47:06;10.40;97.30
1075;DHT22;526;51.392;12.448;2023-04-15T12:49:32;10.50;97.30
1075;DHT22;526;51.392;12.448;2023-04-15T12:51:59;10.50;97.30
1075;DHT22;526;51.392;12.448;2023-04-15T12:54:26;10.50;97.30
1075;DHT22;526;51.392;12.448;2023-04-15T12:56:52;10.50;97.30
1075;DHT22;526;51.392;12.448;2023-04-15T12:59:18;10.50;97.30
1075;DHT22;526;51.392;12.448;2023-04-15T13:01:45;10.50;97.30
1075;DHT22;526;51.392;12.448;2023-04-15T13:04:10;10.50;97.30
1075;DHT22;526;51.392;12.448;2023-04-15T13:06:36;10.60;97.30
1075;DHT22;526;51.392;12.448;2023-04-15T13:09:02;10.50;97.30
1075;DHT22;526;51.392;12.448;2023-04-15T13:11:29;10.60;97.30
1075;DHT22;526;51.392;12.448;2023-04-15T13:14:02;10.60;97.30
1075;DHT22;526;51.392;12.448;2023-04-15T13:16:28;10.60;97.30
1075;DHT22;526;51.392;12.448;2023-04-15T13:18:53;10.60;97.30
1075;DHT22;526;51.392;12.448;2023-04-15T13:21:19;10.60;97.30
1075;DHT22;526;51.392;12.448;2023-04-15T13:23:44;10.60;97.30
1075;DHT22;526;51.392;12.448;2023-04-15T13:26:10;10.60;97.30
1075;DHT22;526;51.392;12.448;2023-04-15T13:28:36;10.60;97.30
1075;DHT22;526;51.392;12.448;2023-04-15T13:31:02;10.60;97.30
1075;DHT22;526;51.392;12.448;2023-04-15T13:33:27;10.50;97.30
1075;DHT22;526;51.392;12.448;2023-04-15T13:35:53;10.60;97.30
1075;DHT22;526;51.392;12.448;2023-04-15T13:38:19;10.60;97.30
1075;DHT22;526;51.392;12.448;2023-04-15T13:40:44;10.60;97.30
1075;DHT22;526;51.392;12.448;2023-04-15T13:43:10;10.60;97.30
1075;DHT22;526;51.392;12.448;2023-04-15T13:45:36;10.60;97.30
1075;DHT22;526;51.392;12.448;2023-04-15T13:48:01;10.70;97.30
1075;DHT22;526;51.392;12.448;2023-04-15T13:50:27;10.70;97.30
1075;DHT22;526;51.392;12.448;2023-04-15T13:52:53;10.70;97.30
1075;DHT22;526;51.392;12.448;2023-04-15T13:55:18;10.70;97.30
1075;DHT22;526;51.392;12.448;2023-04-15T13:57:44;10.70;97.30
1075;DHT22;526;51.392;12.448;2023-04-15T14:00:10;10.70;97.30
1075;DHT22;526;51.392;12.448;2023-04-15T14:02:36;10.70;97.30
1075;DHT22;526;51.392;12.448;2023-04-15T14:05:01;10.70;97.30
1075;DHT22;526;51.392;12.448;2023-04-15T14:07:28;10.70;97.30
1075;DHT22;526;51.392;12.448;2023-04-15T14:09:55;10.70;97.30
1075;DHT22;526;51.392;12.448;2023-04-15T14:12:20;10.70;97.30
1075;DHT22;526;51.392;12.448;2023-04-15T14:14:46;10.70;97.30
1075;DHT22;526;51.392;12.448;2023-04-15T14:17:11;10.70;97.30
1075;DHT22;526;51.392;12.448;2023-04-15T14:19:37;10.70;97.30
1075;DHT22;526;51.392;12.448;2023-04-15T14:22:02;10.70;97.30
1075;DHT22;526;51.392;12.448;2023-04-15T14:24:28;10.70;97.30
1075;DHT22;526;51.392;12.448;2023-04-15T14:26:53;10.70;97.30
1075;DHT22;526;51.392;12.448;2023-04-15T14:29:19;10.70;97.30
1075;DHT22;526;51.392;12.448;2023-04-15T14:31:44;10.70;97.30
1075;DHT22;526;51.392;12.448;2023-04-15T14:34:11;10.70;97.30
1075;DHT22;526;51.392;12.448;2023-04-15T14:36:36;10.70;97.30
1075;DHT22;526;51.392;12.448;2023-04-15T14:39:02;10.60;97.30
1075;DHT22;526;51.392;12.448;2023-04-15T14:41:28;10.60;97.30
1075;DHT22;526;51.392;12.448;2023-04-15T14:43:54;10.60;97.30
1075;DHT22;526;51.392;12.448;2023-04-15T14:46:19;10.60;97.30
1075;DHT22;526;51.392;12.448;2023-04-15T14:48:45;10.60;97.30
1075;DHT22;526;51.392;12.448;2023-04-15T14:51:10;10.70;97.30
1075;DHT22;526;51.392;12.448;2023-04-15T14:53:36;10.70;97.30
1075;DHT22;526;51.392;12.448;2023-04-15T14:56:01;10.70;97.30
1075;DHT22;526;51.392;12.448;2023-04-15T14:58:27;10.70;97.30
1075;DHT22;526;51.392;12.448;2023-04-15T15:00:52;10.80;97.30
1075;DHT22;526;51.392;12.448;2023-04-15T15:03:18;10.80;97.30
1075;DHT22;526;51.392;12.448;2023-04-15T15:05:45;10.80;97.30
1075;DHT22;526;51.392;12.448;2023-04-15T15:08:11;10.90;97.30
1075;DHT22;526;51.392;12.448;2023-04-15T15:10:38;10.90;97.30
1075;DHT22;526;51.392;12.448;2023-04-15T15:13:05;10.90;97.30
1075;DHT22;526;51.392;12.448;2023-04-15T15:15:31;10.90;97.30
1075;DHT22;526;51.392;12.448;2023-04-15T15:17:57;10.90;97.30
1075;DHT22;526;51.392;12.448;2023-04-15T15:20:23;10.80;97.30
1075;DHT22;526;51.392;12.448;2023-04-15T15:22:49;10.80;97.30
1075;DHT22;526;51.392;12.448;2023-04-15T15:25:32;10.80;97.30
1075;DHT22;526;51.392;12.448;2023-04-15T15:28:03;10.80;97.30
1075;DHT22;526;51.392;12.448;2023-04-15T15:39:43;10.80;97.30
1075;DHT22;526;51.392;12.448;2023-04-15T15:42:12;10.80;97.30
1075;DHT22;526;51.392;12.448;2023-04-15T15:44:43;10.80;97.30
1075;DHT22;526;51.392;12.448;2023-04-15T15:47:12;10.80;97.30
1075;DHT22;526;51.392;12.448;2023-04-15T15:49:44;10.80;97.30
1075;DHT22;526;51.392;12.448;2023-04-15T15:52:31;10.80;97.30
1075;DHT22;526;51.392;12.448;2023-04-15T15:55:13;10.80;97.30
1075;DHT22;526;51.392;12.448;2023-04-15T15:57:42;10.80;97.30
1075;DHT22;526;51.392;12.448;2023-04-15T16:00:10;10.80;97.30
1075;DHT22;526;51.392;12.448;2023-04-15T16:02:36;10.80;97.30
1075;DHT22;526;51.392;12.448;2023-04-15T16:05:02;10.80;97.30
1075;DHT22;526;51.392;12.448;2023-04-15T16:07:31;10.80;97.30
1075;DHT22;526;51.392;12.448;2023-04-15T16:09:59;10.80;97.30
1075;DHT22;526;51.392;12.448;2023-04-15T16:12:33;10.80;97.30
1075;DHT22;526;51.392;12.448;2023-04-15T16:15:09;10.80;97.30
1075;DHT22;526;51.392;12.448;2023-04-15T16:17:35;10.80;97.30
1075;DHT22;526;51.392;12.448;2023-04-15T16:20:00;10.80;97.30
1075;DHT22;526;51.392;12.448;2023-04-15T16:22:30;10.80;97.30
1075;DHT22;526;51.392;12.448;2023-04-15T16:24:55;10.80;97.30
1075;DHT22;526;51.392;12.448;2023-04-15T16:27:21;10.80;97.30
1075;DHT22;526;51.392;12.448;2023-04-15T16:29:53;10.80;97.30
1075;DHT22;526;51.392;12.448;2023-04-15T16:32:21;10.80;97.30
1075;DHT22;526;51.392;12.448;2023-04-15T16:46:32;10.80;97.30
1075;DHT22;526;51.392;12.448;2023-04-15T16:49:24;10.70;97.30
1075;DHT22;526;51.392;12.448;2023-04-15T16:52:03;10.70;97.30
1075;DHT22;526;51.392;12.448;2023-04-15T16:54:42;10.70;97.30